sensor_id;sensor_type;location;lat;lon;timestamp;pressure;altitude;pressure_sealevel;temperature;humidity
27984;BME280;15317;50.360;8.726;2023-02-15T00:00:30;100989.81;;;0.33;100.00
27984;BME280;15317;50.360;8.726;2023-02-15T00:04:32;100985.44;;;0.30;100.00
27984;BME280;15317;50.360;8.726;2023-02-15T00:08:47;100979.22;;;0.30;100.00
27984;BME280;15317;50.360;8.726;2023-02-15T00:12:50;100969.41;;;0.30;100.00
27984;BME280;15317;50.360;8.726;2023-02-15T00:16:52;100968.53;;;0.30;100.00
27984;BME280;15317;50.360;8.726;2023-02-15T00:20:55;100962.44;;;0.26;100.00
27984;BME280;15317;50.360;8.726;2023-02-15T00:24:57;100956.31;;;0.23;100.00
27984;BME280;15317;50.360;8.726;2023-02-15T00:29:00;100949.88;;;0.28;100.00
27984;BME280;15317;50.360;8.726;2023-02-15T00:33:02;100952.00;;;0.20;100.00
27984;BME280;15317;50.360;8.726;2023-02-15T00:37:04;100950.34;;;0.16;100.00
27984;BME280;15317;50.360;8.726;2023-02-15T00:41:07;100943.25;;;0.15;100.00
27984;BME280;15317;50.360;8.726;2023-02-15T00:45:11;100939.56;;;0.19;100.00
27984;BME280;15317;50.360;8.726;2023-02-15T00:49:13;100941.34;;;0.19;100.00
27984;BME280;15317;50.360;8.726;2023-02-15T00:53:15;100942.16;;;0.21;100.00
27984;BME280;15317;50.360;8.726;2023-02-15T00:57:17;100941.41;;;0.17;100.00
27984;BME280;15317;50.360;8.726;2023-02-15T01:01:21;100935.28;;;0.14;100.00
27984;BME280;15317;50.360;8.726;2023-02-15T01:05:24;100946.16;;;0.09;100.00
27984;BME280;15317;50.360;8.726;2023-02-15T01:09:25;100947.28;;;0.04;100.00
27984;BME280;15317;50.360;8.726;2023-02-15T01:13:27;100939.31;;;0.02;100.00
27984;BME280;15317;50.360;8.726;2023-02-15T01:17:32;100937.50;;;0.03;100.00
27984;BME280;15317;50.360;8.726;2023-02-15T01:21:34;100939.38;;;0.00;100.00
27984;BME280;15317;50.360;8.726;2023-02-15T01:25:36;100938.38;;;0.03;100.00
27984;BME280;15317;50.360;8.726;2023-02-15T01:29:38;100932.81;;;0.09;100.00
27984;BME280;15317;50.360;8.726;2023-02-15T01:33:41;100922.25;;;0.06;100.00
27984;BME280;15317;50.360;8.726;2023-02-15T01:37:43;100923.03;;;0.08;100.00
27984;BME280;15317;50.360;8.726;2023-02-15T01:41:45;100926.88;;;0.01;100.00
27984;BME280;15317;50.360;8.726;2023-02-15T01:45:49;100925.38;;;-0.06;100.00
27984;BME280;15317;50.360;8.726;2023-02-15T01:50:00;100920.22;;;-0.11;100.00
27984;BME280;15317;50.360;8.726;2023-02-15T01:54:09;100913.25;;;-0.15;100.00
27984;BME280;15317;50.360;8.726;2023-02-15T01:58:13;100921.19;;;-0.13;100.00
27984;BME280;15317;50.360;8.726;2023-02-15T02:02:16;100914.78;;;-0.08;100.00
27984;BME280;15317;50.360;8.726;2023-02-15T02:06:23;100900.53;;;-0.08;100.00
27984;BME280;15317;50.360;8.726;2023-02-15T02:10:25;100913.75;;;-0.05;100.00
27984;BME280;15317;50.360;8.726;2023-02-15T02:14:28;100898.81;;;-0.09;100.00
27984;BME280;15317;50.360;8.726;2023-02-15T02:18:37;100884.28;;;-0.02;100.00
27984;BME280;15317;50.360;8.726;2023-02-15T02:23:18;100893.56;;;0.11;100.00
27984;BME280;15317;50.360;8.726;2023-02-15T02:27:29;100886.47;;;0.10;100.00
27984;BME280;15317;50.360;8.726;2023-02-15T02:31:48;100891.00;;;0.08;100.00
27984;BME280;15317;50.360;8.726;2023-02-15T02:36:05;100887.19;;;0.14;100.00
27984;BME280;15317;50.360;8.726;2023-02-15T02:40:13;100879.38;;;0.09;100.00
27984;BME280;15317;50.360;8.726;2023-02-15T02:44:22;100879.53;;;0.06;100.00
27984;BME280;15317;50.360;8.726;2023-02-15T02:48:28;100878.75;;;0.03;100.00
27984;BME280;15317;50.360;8.726;2023-02-15T02:52:44;100870.78;;;0.01;100.00
27984;BME280;15317;50.360;8.726;2023-02-15T02:56:47;100866.41;;;0.00;100.00
27984;BME280;15317;50.360;8.726;2023-02-15T03:00:53;100860.97;;;0.02;100.00
27984;BME280;15317;50.360;8.726;2023-02-15T03:05:00;100860.00;;;0.04;100.00
27984;BME280;15317;50.360;8.726;2023-02-15T03:09:09;100854.41;;;0.10;100.00
27984;BME280;15317;50.360;8.726;2023-02-15T03:13:15;100847.81;;;-0.03;100.00
27984;BME280;15317;50.360;8.726;2023-02-15T03:17:20;100845.81;;;0.02;100.00
27984;BME280;15317;50.360;8.726;2023-02-15T03:21:30;100849.66;;;-0.05;100.00
27984;BME280;15317;50.360;8.726;2023-02-15T03:25:38;100840.88;;;-0.07;100.00
27984;BME280;15317;50.360;8.726;2023-02-15T03:29:41;100840.88;;;-0.07;100.00
27984;BME280;15317;50.360;8.726;2023-02-15T03:33:51;100840.78;;;-0.06;100.00
27984;BME280;15317;50.360;8.726;2023-02-15T03:37:56;100838.75;;;0.01;100.00
27984;BME280;15317;50.360;8.726;2023-02-15T03:42:08;100838.88;;;-0.02;100.00
27984;BME280;15317;50.360;8.726;2023-02-15T03:46:16;100840.47;;;0.02;100.00
27984;BME280;15317;50.360;8.726;2023-02-15T03:50:21;100840.47;;;0.02;100.00
27984;BME280;15317;50.360;8.726;2023-02-15T03:54:40;100831.53;;;0.03;100.00
27984;BME280;15317;50.360;8.726;2023-02-15T03:58:48;100839.56;;;0.03;100.00
27984;BME280;15317;50.360;8.726;2023-02-15T04:03:12;100831.53;;;0.03;100.00
27984;BME280;15317;50.360;8.726;2023-02-15T04:07:20;100837.50;;;0.10;100.00
27984;BME280;15317;50.360;8.726;2023-02-15T04:11:22;100838.50;;;0.07;100.00
27984;BME280;15317;50.360;8.726;2023-02-15T04:15:25;100834.09;;;0.06;100.00
27984;BME280;15317;50.360;8.726;2023-02-15T04:19:45;100836.22;;;-0.02;100.00
27984;BME280;15317;50.360;8.726;2023-02-15T04:24:05;100825.31;;;0.03;100.00
27984;BME280;15317;50.360;8.726;2023-02-15T04:28:24;100825.31;;;0.03;100.00
27984;BME280;15317;50.360;8.726;2023-02-15T04:32:28;100823.66;;;0.00;100.00
27984;BME280;15317;50.360;8.726;2023-02-15T04:36:30;100816.38;;;0.04;100.00
27984;BME280;15317;50.360;8.726;2023-02-15T04:40:32;100818.25;;;0.02;100.00
27984;BME280;15317;50.360;8.726;2023-02-15T04:44:34;100822.59;;;0.04;100.00
27984;BME280;15317;50.360;8.726;2023-02-15T04:48:37;100820.75;;;0.06;100.00
27984;BME280;15317;50.360;8.726;2023-02-15T04:52:39;100798.56;;;0.04;100.00
27984;BME280;15317;50.360;8.726;2023-02-15T04:56:42;100801.91;;;0.09;100.00
27984;BME280;15317;50.360;8.726;2023-02-15T05:00:44;100811.34;;;-0.04;100.00
27984;BME280;15317;50.360;8.726;2023-02-15T05:04:47;100813.78;;;0.02;100.00
27984;BME280;15317;50.360;8.726;2023-02-15T05:08:49;100798.81;;;-0.02;100.00
27984;BME280;15317;50.360;8.726;2023-02-15T05:12:51;100795.06;;;0.02;100.00
27984;BME280;15317;50.360;8.726;2023-02-15T05:16:53;100796.97;;;0.00;100.00
27984;BME280;15317;50.360;8.726;2023-02-15T05:20:56;100795.06;;;0.02;100.00
27984;BME280;15317;50.360;8.726;2023-02-15T05:24:58;100796.75;;;0.05;100.00
27984;BME280;15317;50.360;8.726;2023-02-15T05:29:18;100793.28;;;0.03;100.00
27984;BME280;15317;50.360;8.726;2023-02-15T05:33:20;100797.44;;;0.10;100.00
27984;BME280;15317;50.360;8.726;2023-02-15T05:37:23;100797.88;;;-0.01;100.00
27984;BME280;15317;50.360;8.726;2023-02-15T05:41:25;100794.41;;;-0.03;100.00
27984;BME280;15317;50.360;8.726;2023-02-15T05:45:27;100785.31;;;0.01;100.00
27984;BME280;15317;50.360;8.726;2023-02-15T05:49:29;100790.97;;;-0.07;100.00
27984;BME280;15317;50.360;8.726;2023-02-15T05:53:35;100788.44;;;-0.10;100.00
27984;BME280;15317;50.360;8.726;2023-02-15T05:57:37;100794.75;;;-0.12;100.00
27984;BME280;15317;50.360;8.726;2023-02-15T06:01:39;100793.78;;;-0.10;100.00
27984;BME280;15317;50.360;8.726;2023-02-15T06:05:41;100799.13;;;-0.10;100.00
27984;BME280;15317;50.360;8.726;2023-02-15T06:09:44;100805.06;;;-0.03;100.00
27984;BME280;15317;50.360;8.726;2023-02-15T06:13:46;100812.97;;;0.00;100.00
27984;BME280;15317;50.360;8.726;2023-02-15T06:17:48;100819.41;;;-0.06;100.00
27984;BME280;15317;50.360;8.726;2023-02-15T06:21:50;100814.84;;;-0.02;100.00
27984;BME280;15317;50.360;8.726;2023-02-15T06:25:53;100816.44;;;0.02;100.00
27984;BME280;15317;50.360;8.726;2023-02-15T06:29:55;100800.09;;;0.10;100.00
27984;BME280;15317;50.360;8.726;2023-02-15T06:33:57;100811.09;;;0.02;100.00
27984;BME280;15317;50.360;8.726;2023-02-15T06:38:01;100811.28;;;-0.03;100.00
27984;BME280;15317;50.360;8.726;2023-02-15T06:42:05;100815.00;;;-0.07;100.00
27984;BME280;15317;50.360;8.726;2023-02-15T06:46:06;100814.63;;;0.03;100.00
27984;BME280;15317;50.360;8.726;2023-02-15T06:50:09;100821.72;;;0.04;100.00
27984;BME280;15317;50.360;8.726;2023-02-15T06:54:11;100830.41;;;0.09;100.00
27984;BME280;15317;50.360;8.726;2023-02-15T06:58:14;100824.09;;;0.11;100.00
27984;BME280;15317;50.360;8.726;2023-02-15T07:02:16;100827.66;;;0.12;100.00
27984;BME280;15317;50.360;8.726;2023-02-15T07:06:18;100823.94;;;0.14;100.00
27984;BME280;15317;50.360;8.726;2023-02-15T07:10:20;100829.19;;;0.17;100.00
27984;BME280;15317;50.360;8.726;2023-02-15T07:14:24;100836.28;;;0.18;100.00
27984;BME280;15317;50.360;8.726;2023-02-15T07:18:26;100837.94;;;0.21;100.00
27984;BME280;15317;50.360;8.726;2023-02-15T07:22:28;100833.31;;;0.26;100.00
27984;BME280;15317;50.360;8.726;2023-02-15T07:26:31;100837.56;;;0.30;100.00
27984;BME280;15317;50.360;8.726;2023-02-15T07:30:34;100833.53;;;0.42;100.00
27984;BME280;15317;50.360;8.726;2023-02-15T07:34:36;100830.94;;;0.40;100.00
27984;BME280;15317;50.360;8.726;2023-02-15T07:38:39;100821.91;;;0.43;100.00
27984;BME280;15317;50.360;8.726;2023-02-15T07:42:41;100818.31;;;0.44;100.00
27984;BME280;15317;50.360;8.726;2023-02-15T07:46:45;100815.78;;;0.41;100.00
27984;BME280;15317;50.360;8.726;2023-02-15T07:50:47;100822.47;;;0.51;100.00
27984;BME280;15317;50.360;8.726;2023-02-15T07:54:49;100809.16;;;0.49;100.00
27984;BME280;15317;50.360;8.726;2023-02-15T07:58:51;100812.03;;;0.45;100.00
27984;BME280;15317;50.360;8.726;2023-02-15T08:02:55;100806.41;;;0.51;100.00
27984;BME280;15317;50.360;8.726;2023-02-15T08:07:15;100801.84;;;0.54;100.00
27984;BME280;15317;50.360;8.726;2023-02-15T08:11:20;100802.44;;;0.61;100.00
27984;BME280;15317;50.360;8.726;2023-02-15T08:15:29;100800.00;;;0.55;100.00
27984;BME280;15317;50.360;8.726;2023-02-15T08:19:34;100799.75;;;0.61;100.00
27984;BME280;15317;50.360;8.726;2023-02-15T08:23:36;100799.81;;;0.59;100.00
27984;BME280;15317;50.360;8.726;2023-02-15T08:27:38;100796.22;;;0.60;100.00
27984;BME280;15317;50.360;8.726;2023-02-15T08:31:40;100790.13;;;0.57;100.00
27984;BME280;15317;50.360;8.726;2023-02-15T08:35:44;100793.34;;;0.65;100.00
27984;BME280;15317;50.360;8.726;2023-02-15T08:39:46;100801.97;;;0.71;100.00
27984;BME280;15317;50.360;8.726;2023-02-15T08:43:49;100801.03;;;0.72;100.00
27984;BME280;15317;50.360;8.726;2023-02-15T08:47:52;100793.22;;;0.68;100.00
27984;BME280;15317;50.360;8.726;2023-02-15T08:51:56;100789.25;;;0.76;100.00
27984;BME280;15317;50.360;8.726;2023-02-15T08:55:58;100787.72;;;0.71;100.00
27984;BME280;15317;50.360;8.726;2023-02-15T09:00:00;100782.00;;;0.80;100.00
27984;BME280;15317;50.360;8.726;2023-02-15T09:04:06;100780.97;;;0.83;100.00
27984;BME280;15317;50.360;8.726;2023-02-15T09:08:10;100781.16;;;0.78;100.00
27984;BME280;15317;50.360;8.726;2023-02-15T09:12:12;100766.06;;;0.77;100.00
27984;BME280;15317;50.360;8.726;2023-02-15T09:16:14;100768.41;;;0.85;100.00
27984;BME280;15317;50.360;8.726;2023-02-15T09:20:17;100772.06;;;0.82;100.00
27984;BME280;15317;50.360;8.726;2023-02-15T09:24:21;100765.41;;;0.72;100.00
27984;BME280;15317;50.360;8.726;2023-02-15T09:28:23;100761.97;;;0.68;100.00
27984;BME280;15317;50.360;8.726;2023-02-15T09:32:25;100757.50;;;0.69;100.00
27984;BME280;15317;50.360;8.726;2023-02-15T09:36:28;100763.59;;;0.72;100.00
27984;BME280;15317;50.360;8.726;2023-02-15T09:40:35;100767.25;;;0.70;100.00
27984;BME280;15317;50.360;8.726;2023-02-15T09:44:54;100763.81;;;0.68;100.00
27984;BME280;15317;50.360;8.726;2023-02-15T09:49:06;100768.34;;;0.66;100.00
27984;BME280;15317;50.360;8.726;2023-02-15T09:53:29;100767.31;;;0.68;100.00
27984;BME280;15317;50.360;8.726;2023-02-15T09:57:38;100754.03;;;0.67;100.00
27984;BME280;15317;50.360;8.726;2023-02-15T10:01:50;100765.00;;;0.61;100.00
27984;BME280;15317;50.360;8.726;2023-02-15T10:06:05;100767.13;;;0.53;100.00
27984;BME280;15317;50.360;8.726;2023-02-15T10:10:23;100762.50;;;0.56;100.00
27984;BME280;15317;50.360;8.726;2023-02-15T10:14:42;100758.56;;;0.65;100.00
27984;BME280;15317;50.360;8.726;2023-02-15T10:18:55;100763.00;;;0.66;100.00
27984;BME280;15317;50.360;8.726;2023-02-15T10:23:08;100766.00;;;0.58;100.00
27984;BME280;15317;50.360;8.726;2023-02-15T10:27:19;100769.38;;;0.62;100.00
27984;BME280;15317;50.360;8.726;2023-02-15T10:31:27;100773.41;;;0.72;100.00
27984;BME280;15317;50.360;8.726;2023-02-15T10:35:35;100775.44;;;0.67;100.00
27984;BME280;15317;50.360;8.726;2023-02-15T10:39:48;100778.66;;;0.75;100.00
27984;BME280;15317;50.360;8.726;2023-02-15T10:44:09;100769.06;;;0.69;100.00
27984;BME280;15317;50.360;8.726;2023-02-15T10:48:25;100770.19;;;0.64;100.00
27984;BME280;15317;50.360;8.726;2023-02-15T10:52:39;100766.13;;;0.55;100.00
27984;BME280;15317;50.360;8.726;2023-02-15T10:56:52;100767.25;;;0.50;100.00
27984;BME280;15317;50.360;8.726;2023-02-15T11:01:05;100767.50;;;0.44;100.00
27984;BME280;15317;50.360;8.726;2023-02-15T11:05:24;100765.22;;;0.34;100.00
27984;BME280;15317;50.360;8.726;2023-02-15T11:09:33;100765.00;;;0.41;100.00
27984;BME280;15317;50.360;8.726;2023-02-15T11:13:39;100768.59;;;0.39;100.00
27984;BME280;15317;50.360;8.726;2023-02-15T11:17:47;100774.59;;;0.45;100.00
27984;BME280;15317;50.360;8.726;2023-02-15T11:21:55;100772.13;;;0.40;100.00
27984;BME280;15317;50.360;8.726;2023-02-15T11:26:01;100761.34;;;0.42;100.00
27984;BME280;15317;50.360;8.726;2023-02-15T11:30:11;100758.09;;;0.55;100.00
27984;BME280;15317;50.360;8.726;2023-02-15T11:34:18;100769.16;;;0.48;100.00
27984;BME280;15317;50.360;8.726;2023-02-15T11:38:24;100758.56;;;0.45;100.00
27984;BME280;15317;50.360;8.726;2023-02-15T11:42:31;100752.28;;;0.46;100.00
27984;BME280;15317;50.360;8.726;2023-02-15T11:46:33;100750.81;;;0.59;100.00
27984;BME280;15317;50.360;8.726;2023-02-15T11:50:36;100743.47;;;0.64;100.00
27984;BME280;15317;50.360;8.726;2023-02-15T11:54:42;100749.63;;;0.66;100.00
27984;BME280;15317;50.360;8.726;2023-02-15T11:58:47;100743.13;;;0.71;100.00
27984;BME280;15317;50.360;8.726;2023-02-15T12:02:53;100731.28;;;0.77;100.00
27984;BME280;15317;50.360;8.726;2023-02-15T12:06:59;100730.38;;;0.78;100.00
27984;BME280;15317;50.360;8.726;2023-02-15T12:11:07;100721.59;;;0.95;100.00
27984;BME280;15317;50.360;8.726;2023-02-15T12:15:13;100720.47;;;0.80;100.00
27984;BME280;15317;50.360;8.726;2023-02-15T12:19:28;100712.81;;;0.91;100.00
27984;BME280;15317;50.360;8.726;2023-02-15T12:23:31;100725.50;;;1.06;100.00
27984;BME280;15317;50.360;8.726;2023-02-15T12:27:35;100719.09;;;0.90;100.00
27984;BME280;15317;50.360;8.726;2023-02-15T12:31:40;100709.00;;;0.97;100.00
27984;BME280;15317;50.360;8.726;2023-02-15T12:35:43;100705.19;;;1.02;100.00
27984;BME280;15317;50.360;8.726;2023-02-15T12:39:54;100700.78;;;1.01;100.00
27984;BME280;15317;50.360;8.726;2023-02-15T12:44:05;100694.75;;;0.96;100.00
27984;BME280;15317;50.360;8.726;2023-02-15T12:48:16;100698.75;;;1.06;100.00
27984;BME280;15317;50.360;8.726;2023-02-15T12:52:24;100696.56;;;0.96;100.00
27984;BME280;15317;50.360;8.726;2023-02-15T12:56:26;100688.47;;;0.97;100.00
27984;BME280;15317;50.360;8.726;2023-02-15T13:00:30;100683.63;;;1.05;100.00
27984;BME280;15317;50.360;8.726;2023-02-15T13:04:32;100679.66;;;0.95;100.00
27984;BME280;15317;50.360;8.726;2023-02-15T13:08:43;100674.97;;;1.00;100.00
27984;BME280;15317;50.360;8.726;2023-02-15T13:12:48;100679.22;;;1.04;100.00
27984;BME280;15317;50.360;8.726;2023-02-15T13:16:57;100658.22;;;1.15;100.00
27984;BME280;15317;50.360;8.726;2023-02-15T13:21:06;100656.53;;;0.94;100.00
27984;BME280;15317;50.360;8.726;2023-02-15T13:25:13;100645.53;;;1.00;100.00
27984;BME280;15317;50.360;8.726;2023-02-15T13:29:21;100649.16;;;0.99;100.00
27984;BME280;15317;50.360;8.726;2023-02-15T13:33:29;100643.84;;;1.16;100.00
27984;BME280;15317;50.360;8.726;2023-02-15T13:37:44;100638.88;;;1.28;100.00
27984;BME280;15317;50.360;8.726;2023-02-15T13:41:53;100636.41;;;1.42;100.00
27984;BME280;15317;50.360;8.726;2023-02-15T13:46:09;100632.31;;;1.52;100.00
27984;BME280;15317;50.360;8.726;2023-02-15T13:50:26;100621.47;;;1.55;100.00
27984;BME280;15317;50.360;8.726;2023-02-15T13:54:42;100625.66;;;1.61;100.00
27984;BME280;15317;50.360;8.726;2023-02-15T13:58:59;100628.28;;;1.62;100.00
27984;BME280;15317;50.360;8.726;2023-02-15T14:03:40;100616.31;;;1.69;100.00
27984;BME280;15317;50.360;8.726;2023-02-15T14:07:56;100627.66;;;1.74;100.00
27984;BME280;15317;50.360;8.726;2023-02-15T14:12:23;100616.81;;;1.77;100.00
27984;BME280;15317;50.360;8.726;2023-02-15T14:16:36;100612.97;;;1.64;100.00
27984;BME280;15317;50.360;8.726;2023-02-15T14:20:56;100617.06;;;1.71;100.00
27984;BME280;15317;50.360;8.726;2023-02-15T14:25:13;100606.22;;;1.74;100.00
27984;BME280;15317;50.360;8.726;2023-02-15T14:29:26;100605.50;;;1.71;100.00
27984;BME280;15317;50.360;8.726;2023-02-15T14:33:33;100604.19;;;1.79;100.00
27984;BME280;15317;50.360;8.726;2023-02-15T14:37:43;100603.72;;;1.88;100.00
27984;BME280;15317;50.360;8.726;2023-02-15T14:41:53;100599.88;;;1.77;100.00
27984;BME280;15317;50.360;8.726;2023-02-15T14:46:03;100592.59;;;1.79;100.00
27984;BME280;15317;50.360;8.726;2023-02-15T14:50:35;100586.69;;;1.72;100.00
27984;BME280;15317;50.360;8.726;2023-02-15T14:54:56;100585.34;;;1.81;100.00
27984;BME280;15317;50.360;8.726;2023-02-15T14:59:14;100584.66;;;1.77;100.00
27984;BME280;15317;50.360;8.726;2023-02-15T15:03:20;100590.09;;;1.76;100.00
27984;BME280;15317;50.360;8.726;2023-02-15T15:07:25;100582.59;;;1.82;100.00
27984;BME280;15317;50.360;8.726;2023-02-15T15:11:41;100584.81;;;1.74;100.00
27984;BME280;15317;50.360;8.726;2023-02-15T15:15:45;100578.47;;;1.58;100.00
27984;BME280;15317;50.360;8.726;2023-02-15T15:19:58;100581.31;;;1.55;100.00
27984;BME280;15317;50.360;8.726;2023-02-15T15:24:00;100578.63;;;1.55;100.00
27984;BME280;15317;50.360;8.726;2023-02-15T15:28:02;100583.13;;;1.54;100.00
27984;BME280;15317;50.360;8.726;2023-02-15T15:32:08;100589.19;;;1.58;100.00
27984;BME280;15317;50.360;8.726;2023-02-15T15:36:30;100590.78;;;1.62;100.00
27984;BME280;15317;50.360;8.726;2023-02-15T15:40:55;100579.75;;;1.68;100.00
27984;BME280;15317;50.360;8.726;2023-02-15T15:45:34;100571.66;;;1.70;100.00
27984;BME280;15317;50.360;8.726;2023-02-15T15:49:41;100576.75;;;1.74;100.00
27984;BME280;15317;50.360;8.726;2023-02-15T15:53:45;100570.91;;;1.66;100.00
27984;BME280;15317;50.360;8.726;2023-02-15T15:57:52;100565.56;;;1.66;100.00
27984;BME280;15317;50.360;8.726;2023-02-15T16:01:55;100577.16;;;1.67;100.00
27984;BME280;15317;50.360;8.726;2023-02-15T16:05:58;100568.88;;;1.71;100.00
27984;BME280;15317;50.360;8.726;2023-02-15T16:10:03;100568.41;;;1.63;100.00
27984;BME280;15317;50.360;8.726;2023-02-15T16:14:11;100567.06;;;1.54;100.00
27984;BME280;15317;50.360;8.726;2023-02-15T16:18:16;100575.47;;;1.47;100.00
27984;BME280;15317;50.360;8.726;2023-02-15T16:22:21;100562.16;;;1.45;100.00
27984;BME280;15317;50.360;8.726;2023-02-15T16:26:39;100563.03;;;1.46;100.00
27984;BME280;15317;50.360;8.726;2023-02-15T16:30:55;100559.66;;;1.42;100.00
27984;BME280;15317;50.360;8.726;2023-02-15T16:35:02;100571.94;;;1.46;100.00
27984;BME280;15317;50.360;8.726;2023-02-15T16:39:16;100566.81;;;1.42;100.00
27984;BME280;15317;50.360;8.726;2023-02-15T16:43:23;100565.38;;;1.35;100.00
27984;BME280;15317;50.360;8.726;2023-02-15T16:47:28;100557.47;;;1.32;100.00
27984;BME280;15317;50.360;8.726;2023-02-15T16:51:33;100561.97;;;1.31;100.00
27984;BME280;15317;50.360;8.726;2023-02-15T16:55:39;100568.13;;;1.33;100.00
27984;BME280;15317;50.360;8.726;2023-02-15T16:59:46;100572.59;;;1.33;100.00
27984;BME280;15317;50.360;8.726;2023-02-15T17:03:50;100570.88;;;1.32;100.00
27984;BME280;15317;50.360;8.726;2023-02-15T17:08:05;100569.69;;;1.37;100.00
27984;BME280;15317;50.360;8.726;2023-02-15T17:12:09;100573.34;;;1.36;100.00
27984;BME280;15317;50.360;8.726;2023-02-15T17:16:27;100577.66;;;1.39;100.00
27984;BME280;15317;50.360;8.726;2023-02-15T17:20:31;100580.41;;;1.37;100.00
27984;BME280;15317;50.360;8.726;2023-02-15T17:24:39;100588.53;;;1.36;100.00
27984;BME280;15317;50.360;8.726;2023-02-15T17:28:45;100590.25;;;1.37;100.00
27984;BME280;15317;50.360;8.726;2023-02-15T17:32:53;100596.47;;;1.37;100.00
27984;BME280;15317;50.360;8.726;2023-02-15T17:36:58;100595.75;;;1.34;100.00
27984;BME280;15317;50.360;8.726;2023-02-15T17:41:02;100592.59;;;1.26;100.00
27984;BME280;15317;50.360;8.726;2023-02-15T17:45:06;100588.09;;;1.26;100.00
27984;BME280;15317;50.360;8.726;2023-02-15T17:49:14;100584.47;;;1.27;100.00
27984;BME280;15317;50.360;8.726;2023-02-15T17:53:20;100585.34;;;1.28;100.00
27984;BME280;15317;50.360;8.726;2023-02-15T17:57:22;100583.56;;;1.28;100.00
27984;BME280;15317;50.360;8.726;2023-02-15T18:01:25;100575.44;;;1.30;100.00
27984;BME280;15317;50.360;8.726;2023-02-15T18:05:45;100577.31;;;1.28;100.00
27984;BME280;15317;50.360;8.726;2023-02-15T18:10:12;100572.78;;;1.30;100.00
27984;BME280;15317;50.360;8.726;2023-02-15T18:14:31;100574.47;;;1.31;100.00
27984;BME280;15317;50.360;8.726;2023-02-15T18:18:35;100568.34;;;1.29;100.00
27984;BME280;15317;50.360;8.726;2023-02-15T18:22:37;100558.13;;;1.37;100.00
27984;BME280;15317;50.360;8.726;2023-02-15T18:26:39;100566.31;;;1.34;100.00
27984;BME280;15317;50.360;8.726;2023-02-15T18:30:41;100565.50;;;1.32;100.00
27984;BME280;15317;50.360;8.726;2023-02-15T18:34:46;100572.84;;;1.28;100.00
27984;BME280;15317;50.360;8.726;2023-02-15T18:38:49;100573.72;;;1.29;100.00
27984;BME280;15317;50.360;8.726;2023-02-15T18:42:53;100577.31;;;1.28;100.00
27984;BME280;15317;50.360;8.726;2023-02-15T18:46:56;100573.22;;;1.21;100.00
27984;BME280;15317;50.360;8.726;2023-02-15T18:51:00;100577.69;;;1.20;100.00
27984;BME280;15317;50.360;8.726;2023-02-15T18:55:03;100570.16;;;1.28;100.00
27984;BME280;15317;50.360;8.726;2023-02-15T18:59:13;100571.16;;;1.26;100.00
27984;BME280;15317;50.360;8.726;2023-02-15T19:03:15;100576.81;;;1.19;100.00
27984;BME280;15317;50.360;8.726;2023-02-15T19:07:21;100574.94;;;1.22;100.00
27984;BME280;15317;50.360;8.726;2023-02-15T19:11:24;100565.25;;;1.19;100.00
27984;BME280;15317;50.360;8.726;2023-02-15T19:15:29;100566.50;;;1.12;100.00
27984;BME280;15317;50.360;8.726;2023-02-15T19:19:31;100563.19;;;1.07;100.00
27984;BME280;15317;50.360;8.726;2023-02-15T19:23:35;100568.47;;;1.08;100.00
27984;BME280;15317;50.360;8.726;2023-02-15T19:27:37;100568.59;;;1.05;100.00
27984;BME280;15317;50.360;8.726;2023-02-15T19:31:39;100569.22;;;1.10;100.00
27984;BME280;15317;50.360;8.726;2023-02-15T19:35:41;100575.97;;;1.00;100.00
27984;BME280;15317;50.360;8.726;2023-02-15T19:39:45;100577.44;;;1.07;100.00
27984;BME280;15317;50.360;8.726;2023-02-15T19:43:49;100575.97;;;1.00;100.00
27984;BME280;15317;50.360;8.726;2023-02-15T19:47:53;100578.50;;;1.03;100.00
27984;BME280;15317;50.360;8.726;2023-02-15T19:51:55;100567.31;;;0.95;100.00
27984;BME280;15317;50.360;8.726;2023-02-15T19:55:58;100575.34;;;0.95;100.00
27984;BME280;15317;50.360;8.726;2023-02-15T20:00:00;100578.72;;;0.99;100.00
27984;BME280;15317;50.360;8.726;2023-02-15T20:04:03;100579.88;;;0.93;100.00
27984;BME280;15317;50.360;8.726;2023-02-15T20:08:06;100581.47;;;0.97;100.00
27984;BME280;15317;50.360;8.726;2023-02-15T20:12:18;100585.25;;;0.93;100.00
27984;BME280;15317;50.360;8.726;2023-02-15T20:16:21;100582.25;;;0.99;100.00
27984;BME280;15317;50.360;8.726;2023-02-15T20:20:29;100590.59;;;0.93;100.00
27984;BME280;15317;50.360;8.726;2023-02-15T20:24:33;100578.03;;;0.95;100.00
27984;BME280;15317;50.360;8.726;2023-02-15T20:28:36;100583.56;;;0.91;100.00
27984;BME280;15317;50.360;8.726;2023-02-15T20:32:38;100578.16;;;0.92;100.00
27984;BME280;15317;50.360;8.726;2023-02-15T20:36:40;100579.09;;;0.91;100.00
27984;BME280;15317;50.360;8.726;2023-02-15T20:40:42;100586.16;;;0.92;100.00
27984;BME280;15317;50.360;8.726;2023-02-15T20:45:15;100586.25;;;0.91;100.00
27984;BME280;15317;50.360;8.726;2023-02-15T20:49:18;100588.03;;;0.90;100.00
27984;BME280;15317;50.360;8.726;2023-02-15T20:53:20;100592.47;;;0.91;100.00
27984;BME280;15317;50.360;8.726;2023-02-15T20:57:22;100593.31;;;0.92;100.00
27984;BME280;15317;50.360;8.726;2023-02-15T21:01:25;100581.81;;;0.90;100.00
27984;BME280;15317;50.360;8.726;2023-02-15T21:05:29;100573.09;;;0.86;100.00
27984;BME280;15317;50.360;8.726;2023-02-15T21:09:32;100575.69;;;0.88;100.00
27984;BME280;15317;50.360;8.726;2023-02-15T21:13:34;100573.09;;;0.86;100.00
27984;BME280;15317;50.360;8.726;2023-02-15T21:17:38;100577.69;;;0.83;100.00
27984;BME280;15317;50.360;8.726;2023-02-15T21:21:40;100573.78;;;0.90;100.00
27984;BME280;15317;50.360;8.726;2023-02-15T21:25:42;100583.78;;;0.86;100.00
27984;BME280;15317;50.360;8.726;2023-02-15T21:29:45;100574.66;;;0.90;100.00